UAL7 KDEN-KIAH
Flight info
| Callsign | UAL7 |
|---|---|
| Flight time | 1h 52m |
| Altitude | 35000 |
| Route | EPKEE7 DUUZE GCK ADM CVE GUSHR3 |
| Aircraft | B738/M-SDE2E3FGHIRWXY/LB1 |
Departure
| Time | 2026-05-01 12:47 |
|---|---|
| Airport | Denver International Airport (KDEN) |
Arrival
| Time | 2026-05-01 14:40 |
|---|---|
| Airport | George Bush Intercontinental Airport (KIAH) |
| Time | Latitude | Longitude | Altitude | Speed | Heading |
|---|---|---|---|---|---|
| 2026-05-01 12:27 | 39.85935 | -104.67754 | 5379 ft | 0 kts | 180° |
| 2026-05-01 12:35 | 39.85939 | -104.67754 | 5379 ft | 3 kts | 180° |
| 2026-05-01 12:35 | 39.85966 | -104.67754 | 5374 ft | 4 kts | 183° |
| 2026-05-01 12:36 | 39.85992 | -104.67748 | 5376 ft | 4 kts | 205° |
| 2026-05-01 12:36 | 39.86011 | -104.67728 | 5376 ft | 4 kts | 248° |
| 2026-05-01 12:36 | 39.86014 | -104.67709 | 5374 ft | 1 kts | 271° |
| 2026-05-01 12:36 | 39.86014 | -104.67706 | 5379 ft | 1 kts | 271° |
| 2026-05-01 12:40 | 39.86020 | -104.67729 | 5379 ft | 5 kts | 311° |
| 2026-05-01 12:40 | 39.86058 | -104.67707 | 5376 ft | 9 kts | 60° |
| 2026-05-01 12:40 | 39.86067 | -104.67614 | 5378 ft | 11 kts | 90° |
| 2026-05-01 12:40 | 39.86067 | -104.67511 | 5378 ft | 12 kts | 89° |
| 2026-05-01 12:41 | 39.86067 | -104.67403 | 5378 ft | 12 kts | 91° |
| 2026-05-01 12:41 | 39.86066 | -104.67291 | 5378 ft | 13 kts | 90° |
| 2026-05-01 12:41 | 39.86065 | -104.67174 | 5378 ft | 13 kts | 91° |
| 2026-05-01 12:41 | 39.86064 | -104.67051 | 5376 ft | 14 kts | 91° |
| 2026-05-01 12:42 | 39.86063 | -104.66922 | 5378 ft | 15 kts | 90° |
| 2026-05-01 12:42 | 39.86062 | -104.66787 | 5378 ft | 15 kts | 90° |
| 2026-05-01 12:42 | 39.86061 | -104.66652 | 5375 ft | 12 kts | 90° |
| 2026-05-01 12:42 | 39.86040 | -104.66551 | 5378 ft | 12 kts | 130° |
| 2026-05-01 12:43 | 39.86018 | -104.66459 | 5377 ft | 10 kts | 91° |
| 2026-05-01 12:43 | 39.86018 | -104.66376 | 5383 ft | 8 kts | 90° |
| 2026-05-01 12:43 | 39.86018 | -104.66301 | 5385 ft | 9 kts | 85° |
| 2026-05-01 12:43 | 39.86066 | -104.66234 | 5385 ft | 13 kts | 9° |
| 2026-05-01 12:44 | 39.86180 | -104.66230 | 5381 ft | 20 kts | 1° |
| 2026-05-01 12:44 | 39.86322 | -104.66228 | 5381 ft | 21 kts | 1° |
| 2026-05-01 12:44 | 39.86613 | -104.66227 | 5379 ft | 21 kts | 0° |
| 2026-05-01 12:45 | 39.86939 | -104.66224 | 5368 ft | 25 kts | 1° |
| 2026-05-01 12:45 | 39.87116 | -104.66221 | 5365 ft | 26 kts | 1° |
| 2026-05-01 12:45 | 39.87301 | -104.66217 | 5362 ft | 27 kts | 0° |
| 2026-05-01 12:46 | 39.87493 | -104.66222 | 5360 ft | 27 kts | 359° |
| 2026-05-01 12:46 | 39.87643 | -104.66211 | 5361 ft | 15 kts | 2° |
| 2026-05-01 12:46 | 39.87741 | -104.66188 | 5360 ft | 15 kts | 40° |
| 2026-05-01 12:46 | 39.87755 | -104.66017 | 5357 ft | 40 kts | 91° |
| 2026-05-01 12:47 | 39.87749 | -104.65342 | 5352 ft | 107 kts | 90° |
| 2026-05-01 12:47 | 39.87744 | -104.64582 | 5339 ft | 146 kts | 90° |
| 2026-05-01 12:47 | 39.87728 | -104.62578 | 5760 ft | 176 kts | 92° |
| 2026-05-01 12:47 | 39.87656 | -104.60930 | 6319 ft | 187 kts | 103° |
| 2026-05-01 12:48 | 39.87197 | -104.59298 | 6793 ft | 200 kts | 120° |
| 2026-05-01 12:48 | 39.86754 | -104.58201 | 6971 ft | 214 kts | 119° |
| 2026-05-01 12:48 | 39.86102 | -104.56398 | 7377 ft | 223 kts | 114° |
| 2026-05-01 12:48 | 39.85500 | -104.54454 | 7665 ft | 240 kts | 112° |
| 2026-05-01 12:49 | 39.84903 | -104.52354 | 8028 ft | 251 kts | 111° |
| 2026-05-01 12:49 | 39.84291 | -104.50139 | 8356 ft | 269 kts | 108° |
| 2026-05-01 12:49 | 39.83668 | -104.47729 | 8717 ft | 288 kts | 110° |
| 2026-05-01 12:49 | 39.82951 | -104.45272 | 9436 ft | 292 kts | 112° |
| 2026-05-01 12:50 | 39.82174 | -104.42837 | 10193 ft | 296 kts | 112° |
| 2026-05-01 12:50 | 39.81339 | -104.40307 | 10568 ft | 316 kts | 113° |
| 2026-05-01 12:50 | 39.80421 | -104.37593 | 10752 ft | 339 kts | 113° |
| 2026-05-01 12:50 | 39.79419 | -104.34701 | 10923 ft | 362 kts | 114° |
| 2026-05-01 12:51 | 39.78354 | -104.31647 | 11156 ft | 379 kts | 114° |
| 2026-05-01 12:51 | 39.77248 | -104.28480 | 11676 ft | 387 kts | 114° |
| 2026-05-01 12:51 | 39.75012 | -104.22070 | 13047 ft | 392 kts | 113° |
| 2026-05-01 12:52 | 39.73877 | -104.18814 | 13647 ft | 396 kts | 113° |
| 2026-05-01 12:52 | 39.71590 | -104.12269 | 14651 ft | 405 kts | 114° |
| 2026-05-01 12:52 | 39.70411 | -104.08931 | 15178 ft | 408 kts | 114° |
| 2026-05-01 12:53 | 39.68012 | -104.02182 | 16342 ft | 414 kts | 114° |
| 2026-05-01 12:53 | 39.66798 | -103.98766 | 16874 ft | 418 kts | 114° |
| 2026-05-01 12:53 | 39.65575 | -103.95326 | 17371 ft | 423 kts | 114° |
| 2026-05-01 12:54 | 39.64256 | -103.91889 | 17859 ft | 427 kts | 117° |
| 2026-05-01 12:54 | 39.61395 | -103.85068 | 18861 ft | 434 kts | 118° |
| 2026-05-01 12:54 | 39.59958 | -103.81611 | 19312 ft | 438 kts | 118° |
| 2026-05-01 12:55 | 39.57447 | -103.74353 | 20166 ft | 445 kts | 109° |
| 2026-05-01 12:55 | 39.56415 | -103.70556 | 20620 ft | 448 kts | 108° |
| 2026-05-01 12:55 | 39.55409 | -103.66723 | 21053 ft | 451 kts | 108° |
| 2026-05-01 12:56 | 39.54399 | -103.62912 | 21422 ft | 455 kts | 109° |
| 2026-05-01 12:56 | 39.53345 | -103.59028 | 21815 ft | 458 kts | 109° |
| 2026-05-01 12:56 | 39.52262 | -103.55127 | 22192 ft | 462 kts | 109° |
| 2026-05-01 12:56 | 39.51158 | -103.51207 | 22540 ft | 465 kts | 110° |
| 2026-05-01 12:57 | 39.50035 | -103.47257 | 22918 ft | 468 kts | 110° |
| 2026-05-01 12:57 | 39.47759 | -103.39290 | 23582 ft | 475 kts | 110° |
| 2026-05-01 12:57 | 39.46608 | -103.35272 | 23915 ft | 478 kts | 110° |
| 2026-05-01 12:58 | 39.45447 | -103.31225 | 24214 ft | 481 kts | 110° |
| 2026-05-01 12:58 | 39.44280 | -103.27160 | 24521 ft | 484 kts | 110° |
| 2026-05-01 12:58 | 39.43104 | -103.23062 | 24792 ft | 487 kts | 110° |
| 2026-05-01 12:59 | 39.40722 | -103.14785 | 25362 ft | 493 kts | 111° |
| 2026-05-01 12:59 | 39.39520 | -103.10618 | 25615 ft | 496 kts | 111° |
| 2026-05-01 12:59 | 39.37104 | -103.02257 | 26089 ft | 502 kts | 111° |
| 2026-05-01 13:00 | 39.34598 | -102.93715 | 26600 ft | 507 kts | 114° |
| 2026-05-01 13:00 | 39.33143 | -102.89611 | 26820 ft | 509 kts | 118° |
| 2026-05-01 13:01 | 39.29846 | -102.81477 | 27317 ft | 512 kts | 120° |
| 2026-05-01 13:01 | 39.28173 | -102.77421 | 27677 ft | 511 kts | 120° |
| 2026-05-01 13:01 | 39.24895 | -102.69270 | 28310 ft | 512 kts | 119° |
| 2026-05-01 13:02 | 39.23276 | -102.65169 | 28571 ft | 513 kts | 119° |
| 2026-05-01 13:07 | 38.88490 | -101.78541 | 33727 ft | 525 kts | 122° |
| 2026-05-01 13:07 | 38.86795 | -101.74389 | 33964 ft | 525 kts | 122° |
| 2026-05-01 13:07 | 38.84969 | -101.70349 | 34102 ft | 520 kts | 133° |
| 2026-05-01 13:08 | 38.82554 | -101.67080 | 34247 ft | 505 kts | 147° |
| 2026-05-01 13:08 | 38.79854 | -101.64223 | 34502 ft | 502 kts | 149° |
| 2026-05-01 13:08 | 38.77133 | -101.61420 | 34762 ft | 500 kts | 149° |
| 2026-05-01 13:08 | 38.74418 | -101.58633 | 34973 ft | 501 kts | 149° |
| 2026-05-01 13:09 | 38.71706 | -101.55832 | 35122 ft | 502 kts | 148° |
| 2026-05-01 13:09 | 38.66271 | -101.50144 | 35186 ft | 504 kts | 148° |
| 2026-05-01 13:10 | 38.60888 | -101.44451 | 35186 ft | 500 kts | 148° |
| 2026-05-01 13:10 | 38.55537 | -101.38792 | 35191 ft | 498 kts | 148° |
| 2026-05-01 13:11 | 38.50201 | -101.33171 | 35193 ft | 497 kts | 148° |
| 2026-05-01 13:11 | 38.44903 | -101.27606 | 35194 ft | 496 kts | 148° |
| 2026-05-01 13:12 | 38.39557 | -101.22002 | 35195 ft | 497 kts | 148° |
| 2026-05-01 13:12 | 38.34203 | -101.16401 | 35208 ft | 499 kts | 148° |
| 2026-05-01 13:13 | 38.28821 | -101.10778 | 35208 ft | 501 kts | 148° |
| 2026-05-01 13:13 | 38.23421 | -101.05151 | 35206 ft | 502 kts | 148° |
| 2026-05-01 13:14 | 38.17997 | -100.99507 | 35212 ft | 503 kts | 149° |
| 2026-05-01 13:14 | 38.12602 | -100.93903 | 35212 ft | 504 kts | 149° |
| 2026-05-01 13:15 | 38.07171 | -100.88272 | 35201 ft | 503 kts | 149° |
| 2026-05-01 13:15 | 38.01748 | -100.82661 | 35197 ft | 502 kts | 149° |
| 2026-05-01 13:16 | 37.96325 | -100.77062 | 35204 ft | 501 kts | 149° |
| 2026-05-01 13:16 | 37.90925 | -100.71498 | 35182 ft | 500 kts | 149° |
| 2026-05-01 13:17 | 37.80150 | -100.60527 | 35187 ft | 497 kts | 149° |
| 2026-05-01 13:18 | 37.72064 | -100.52323 | 35183 ft | 496 kts | 150° |
| 2026-05-01 13:18 | 37.66686 | -100.46874 | 35189 ft | 495 kts | 150° |
| 2026-05-01 13:19 | 37.61310 | -100.41438 | 35194 ft | 495 kts | 150° |
| 2026-05-01 13:20 | 37.53282 | -100.33339 | 35190 ft | 494 kts | 150° |
| 2026-05-01 13:20 | 37.47895 | -100.27919 | 35194 ft | 494 kts | 150° |
| 2026-05-01 13:21 | 37.39829 | -100.19820 | 35203 ft | 495 kts | 150° |
| 2026-05-01 13:21 | 37.34469 | -100.14450 | 35197 ft | 495 kts | 150° |
| 2026-05-01 13:22 | 37.29053 | -100.09036 | 35192 ft | 496 kts | 150° |
| 2026-05-01 13:22 | 37.23647 | -100.03641 | 35201 ft | 496 kts | 150° |
| 2026-05-01 13:23 | 37.18267 | -99.98281 | 35200 ft | 497 kts | 150° |
| 2026-05-01 13:23 | 37.12848 | -99.92893 | 35205 ft | 496 kts | 150° |
| 2026-05-01 13:24 | 37.07427 | -99.87513 | 35200 ft | 497 kts | 150° |
| 2026-05-01 13:25 | 36.99290 | -99.79459 | 35205 ft | 496 kts | 150° |
| 2026-05-01 13:25 | 36.93913 | -99.74147 | 35208 ft | 496 kts | 150° |
| 2026-05-01 13:26 | 36.88497 | -99.68808 | 35200 ft | 495 kts | 150° |
| 2026-05-01 13:26 | 36.83084 | -99.63485 | 35199 ft | 495 kts | 150° |
| 2026-05-01 13:27 | 36.77682 | -99.58179 | 35204 ft | 494 kts | 151° |
| 2026-05-01 13:27 | 36.69578 | -99.50237 | 35205 ft | 493 kts | 151° |
| 2026-05-01 13:28 | 36.61484 | -99.42326 | 35201 ft | 493 kts | 151° |
| 2026-05-01 13:29 | 36.50687 | -99.31807 | 35215 ft | 492 kts | 151° |
| 2026-05-01 13:31 | 36.34504 | -99.16117 | 35200 ft | 493 kts | 151° |
| 2026-05-01 13:32 | 36.20991 | -99.03076 | 35190 ft | 492 kts | 152° |
| 2026-05-01 13:33 | 36.07453 | -98.90075 | 35191 ft | 492 kts | 152° |
| 2026-05-01 13:34 | 35.96619 | -98.79708 | 35191 ft | 491 kts | 153° |
| 2026-05-01 13:35 | 35.88529 | -98.71988 | 35179 ft | 488 kts | 153° |
| 2026-05-01 13:36 | 35.80507 | -98.64357 | 35181 ft | 485 kts | 153° |
| 2026-05-01 13:36 | 35.73392 | -98.57609 | 35182 ft | 484 kts | 153° |
| 2026-05-01 13:37 | 35.68039 | -98.52544 | 35184 ft | 484 kts | 153° |
| 2026-05-01 13:37 | 35.62697 | -98.47496 | 35185 ft | 484 kts | 154° |
| 2026-05-01 13:38 | 35.54693 | -98.39947 | 35176 ft | 486 kts | 154° |
| 2026-05-01 13:39 | 35.49328 | -98.34897 | 35167 ft | 486 kts | 154° |
| 2026-05-01 13:39 | 35.43956 | -98.29848 | 35162 ft | 486 kts | 154° |
| 2026-05-01 13:40 | 35.38581 | -98.24805 | 35158 ft | 486 kts | 154° |
| 2026-05-01 13:40 | 35.33201 | -98.19768 | 35156 ft | 486 kts | 154° |
| 2026-05-01 13:41 | 35.27821 | -98.14739 | 35159 ft | 486 kts | 154° |
| 2026-05-01 13:41 | 35.22435 | -98.09713 | 35155 ft | 486 kts | 154° |
| 2026-05-01 13:42 | 35.17055 | -98.04701 | 35164 ft | 486 kts | 154° |
| 2026-05-01 13:42 | 35.11714 | -97.99733 | 35168 ft | 485 kts | 154° |
| 2026-05-01 13:43 | 35.06338 | -97.94742 | 35163 ft | 485 kts | 155° |
| 2026-05-01 13:43 | 35.00964 | -97.89763 | 35165 ft | 484 kts | 155° |
| 2026-05-01 13:44 | 34.95597 | -97.84797 | 35171 ft | 484 kts | 155° |
| 2026-05-01 13:44 | 34.90231 | -97.79842 | 35160 ft | 484 kts | 155° |
| 2026-05-01 13:45 | 34.84861 | -97.74888 | 35152 ft | 484 kts | 155° |
| 2026-05-01 13:45 | 34.79531 | -97.69979 | 35146 ft | 483 kts | 155° |
| 2026-05-01 13:46 | 34.74174 | -97.65057 | 35139 ft | 482 kts | 156° |
| 2026-05-01 13:46 | 34.68824 | -97.60147 | 35148 ft | 481 kts | 156° |
| 2026-05-01 13:47 | 34.63480 | -97.55252 | 35155 ft | 481 kts | 156° |
| 2026-05-01 13:47 | 34.58135 | -97.50364 | 35147 ft | 480 kts | 156° |
| 2026-05-01 13:48 | 34.52808 | -97.45498 | 35159 ft | 479 kts | 156° |
| 2026-05-01 13:48 | 34.47512 | -97.40673 | 35152 ft | 479 kts | 156° |
| 2026-05-01 13:49 | 34.42184 | -97.35826 | 35152 ft | 479 kts | 156° |
| 2026-05-01 13:49 | 34.36854 | -97.30981 | 35149 ft | 479 kts | 156° |
| 2026-05-01 13:50 | 34.31523 | -97.26145 | 35139 ft | 479 kts | 156° |
| 2026-05-01 13:50 | 34.26186 | -97.21311 | 35139 ft | 480 kts | 156° |
| 2026-05-01 13:50 | 34.23466 | -97.19007 | 35118 ft | 468 kts | 163° |
| 2026-05-01 13:51 | 34.20614 | -97.17280 | 35134 ft | 451 kts | 171° |
| 2026-05-01 13:51 | 34.17684 | -97.16060 | 35124 ft | 437 kts | 179° |
| 2026-05-01 13:51 | 34.14789 | -97.15388 | 35138 ft | 426 kts | 184° |
| 2026-05-01 13:52 | 34.08922 | -97.14263 | 35136 ft | 427 kts | 184° |
| 2026-05-01 13:52 | 34.03043 | -97.13119 | 35124 ft | 427 kts | 184° |
| 2026-05-01 13:53 | 33.97171 | -97.11947 | 35127 ft | 427 kts | 183° |
| 2026-05-01 13:53 | 33.88414 | -97.10182 | 35123 ft | 426 kts | 183° |
| 2026-05-01 13:54 | 33.82565 | -97.09005 | 35125 ft | 425 kts | 183° |
| 2026-05-01 13:54 | 33.76729 | -97.07832 | 35133 ft | 425 kts | 183° |
| 2026-05-01 13:55 | 33.70891 | -97.06662 | 35138 ft | 425 kts | 183° |
| 2026-05-01 13:55 | 33.65043 | -97.05490 | 35140 ft | 425 kts | 183° |
| 2026-05-01 13:56 | 33.59240 | -97.04329 | 35140 ft | 425 kts | 183° |
| 2026-05-01 13:56 | 33.53399 | -97.03163 | 35133 ft | 426 kts | 183° |
| 2026-05-01 13:57 | 33.47551 | -97.01996 | 35127 ft | 426 kts | 183° |
| 2026-05-01 13:57 | 33.41699 | -97.00831 | 35125 ft | 427 kts | 183° |
| 2026-05-01 13:58 | 33.35842 | -96.99664 | 35123 ft | 426 kts | 183° |
| 2026-05-01 13:58 | 33.30000 | -96.98503 | 35109 ft | 425 kts | 183° |
| 2026-05-01 13:59 | 33.24162 | -96.97344 | 35112 ft | 425 kts | 183° |
| 2026-05-01 13:59 | 33.18334 | -96.96189 | 35108 ft | 425 kts | 183° |
| 2026-05-01 14:00 | 33.12497 | -96.95036 | 35103 ft | 425 kts | 183° |
| 2026-05-01 14:00 | 33.06700 | -96.93890 | 35103 ft | 425 kts | 183° |
| 2026-05-01 14:01 | 33.00865 | -96.92738 | 35103 ft | 425 kts | 183° |
| 2026-05-01 14:01 | 32.95028 | -96.91587 | 35100 ft | 425 kts | 183° |
| 2026-05-01 14:02 | 32.89188 | -96.90436 | 35101 ft | 425 kts | 182° |
| 2026-05-01 14:02 | 32.83352 | -96.88896 | 35109 ft | 432 kts | 179° |
| 2026-05-01 14:03 | 32.77522 | -96.87130 | 35110 ft | 432 kts | 179° |
| 2026-05-01 14:03 | 32.71727 | -96.85418 | 35103 ft | 431 kts | 179° |
| 2026-05-01 14:04 | 32.65898 | -96.83738 | 35100 ft | 431 kts | 179° |
| 2026-05-01 14:04 | 32.61016 | -96.82337 | 35101 ft | 431 kts | 179° |
| 2026-05-01 14:05 | 32.54239 | -96.80393 | 35095 ft | 431 kts | 179° |
| 2026-05-01 14:05 | 32.48415 | -96.78729 | 35097 ft | 431 kts | 179° |
| 2026-05-01 14:06 | 32.42584 | -96.77065 | 35085 ft | 431 kts | 179° |
| 2026-05-01 14:06 | 32.36782 | -96.75409 | 35087 ft | 431 kts | 179° |
| 2026-05-01 14:07 | 32.30948 | -96.73747 | 35092 ft | 431 kts | 179° |
| 2026-05-01 14:08 | 32.22200 | -96.71257 | 35100 ft | 430 kts | 179° |
| 2026-05-01 14:08 | 32.16375 | -96.69603 | 35104 ft | 430 kts | 179° |
| 2026-05-01 14:09 | 32.10550 | -96.67951 | 35099 ft | 430 kts | 179° |
| 2026-05-01 14:09 | 32.04726 | -96.66300 | 35103 ft | 430 kts | 179° |
| 2026-05-01 14:10 | 31.98935 | -96.64662 | 35098 ft | 430 kts | 179° |
| 2026-05-01 14:10 | 31.93097 | -96.63015 | 35092 ft | 432 kts | 178° |
| 2026-05-01 14:11 | 31.87227 | -96.61359 | 35097 ft | 433 kts | 178° |
| 2026-05-01 14:11 | 31.78412 | -96.58877 | 34887 ft | 438 kts | 178° |
| 2026-05-01 14:12 | 31.75428 | -96.58041 | 34284 ft | 439 kts | 178° |
| 2026-05-01 14:12 | 31.72500 | -96.57215 | 33599 ft | 438 kts | 178° |
| 2026-05-01 14:12 | 31.69532 | -96.56379 | 32892 ft | 438 kts | 178° |
| 2026-05-01 14:12 | 31.66562 | -96.55544 | 32160 ft | 439 kts | 178° |
| 2026-05-01 14:13 | 31.63591 | -96.54709 | 31404 ft | 439 kts | 177° |
| 2026-05-01 14:13 | 31.61582 | -96.54146 | 30880 ft | 440 kts | 177° |
| 2026-05-01 14:13 | 31.57636 | -96.53040 | 29819 ft | 441 kts | 177° |
| 2026-05-01 14:13 | 31.54649 | -96.52204 | 28987 ft | 442 kts | 177° |
| 2026-05-01 14:14 | 31.51665 | -96.51276 | 28100 ft | 451 kts | 170° |
| 2026-05-01 14:14 | 31.48785 | -96.49652 | 27259 ft | 463 kts | 162° |
| 2026-05-01 14:14 | 31.45936 | -96.47848 | 26287 ft | 467 kts | 161° |
| 2026-05-01 14:14 | 31.43082 | -96.46038 | 25523 ft | 465 kts | 161° |
| 2026-05-01 14:15 | 31.40242 | -96.44257 | 24939 ft | 459 kts | 161° |
| 2026-05-01 14:15 | 31.37465 | -96.42531 | 24784 ft | 443 kts | 162° |
| 2026-05-01 14:15 | 31.34776 | -96.40879 | 24581 ft | 433 kts | 162° |
| 2026-05-01 14:15 | 31.32100 | -96.39254 | 24418 ft | 435 kts | 162° |
| 2026-05-01 14:16 | 31.29435 | -96.37634 | 24221 ft | 426 kts | 162° |
| 2026-05-01 14:16 | 31.26849 | -96.36050 | 24030 ft | 414 kts | 162° |
| 2026-05-01 14:16 | 31.24308 | -96.34499 | 23571 ft | 410 kts | 162° |
| 2026-05-01 14:16 | 31.21788 | -96.32964 | 23141 ft | 406 kts | 162° |
| 2026-05-01 14:17 | 31.19295 | -96.31448 | 22708 ft | 403 kts | 162° |
| 2026-05-01 14:17 | 31.16821 | -96.29943 | 22271 ft | 399 kts | 162° |
| 2026-05-01 14:17 | 31.14403 | -96.28473 | 21843 ft | 395 kts | 162° |
| 2026-05-01 14:17 | 31.11944 | -96.26979 | 21411 ft | 392 kts | 162° |
| 2026-05-01 14:18 | 31.09568 | -96.25536 | 20994 ft | 388 kts | 162° |
| 2026-05-01 14:18 | 31.07182 | -96.24088 | 20574 ft | 384 kts | 162° |
| 2026-05-01 14:18 | 31.04821 | -96.22656 | 20158 ft | 381 kts | 162° |
| 2026-05-01 14:18 | 31.03265 | -96.21712 | 19886 ft | 379 kts | 161° |
| 2026-05-01 14:19 | 31.00160 | -96.19827 | 19337 ft | 374 kts | 161° |
| 2026-05-01 14:19 | 30.97880 | -96.18390 | 18934 ft | 371 kts | 160° |
| 2026-05-01 14:19 | 30.95631 | -96.16931 | 18530 ft | 368 kts | 160° |
| 2026-05-01 14:19 | 30.93408 | -96.15483 | 18128 ft | 364 kts | 160° |
| 2026-05-01 14:20 | 30.91205 | -96.14053 | 17731 ft | 361 kts | 160° |
| 2026-05-01 14:20 | 30.86857 | -96.11250 | 16959 ft | 352 kts | 159° |
| 2026-05-01 14:20 | 30.84748 | -96.09894 | 16581 ft | 348 kts | 159° |
| 2026-05-01 14:21 | 30.82633 | -96.08535 | 16204 ft | 345 kts | 158° |
| 2026-05-01 14:21 | 30.80545 | -96.07194 | 15836 ft | 341 kts | 158° |
| 2026-05-01 14:21 | 30.78475 | -96.05865 | 15466 ft | 338 kts | 158° |
| 2026-05-01 14:22 | 30.74378 | -96.03237 | 14738 ft | 336 kts | 157° |
| 2026-05-01 14:22 | 30.72329 | -96.01925 | 14380 ft | 336 kts | 157° |
| 2026-05-01 14:22 | 30.70280 | -96.00613 | 14017 ft | 337 kts | 156° |
| 2026-05-01 14:22 | 30.68253 | -95.99315 | 13644 ft | 337 kts | 156° |
| 2026-05-01 14:23 | 30.66200 | -95.98000 | 13274 ft | 337 kts | 156° |
| 2026-05-01 14:23 | 30.64149 | -95.96688 | 12906 ft | 336 kts | 155° |
| 2026-05-01 14:23 | 30.62099 | -95.95377 | 12543 ft | 336 kts | 155° |
| 2026-05-01 14:23 | 30.60063 | -95.94075 | 12173 ft | 332 kts | 155° |
| 2026-05-01 14:24 | 30.58055 | -95.92790 | 11810 ft | 328 kts | 154° |
| 2026-05-01 14:24 | 30.56736 | -95.91947 | 11578 ft | 325 kts | 154° |
| 2026-05-01 14:24 | 30.54762 | -95.90687 | 11223 ft | 322 kts | 154° |
| 2026-05-01 14:24 | 30.52811 | -95.89441 | 10874 ft | 318 kts | 153° |
| 2026-05-01 14:25 | 30.50887 | -95.88213 | 10531 ft | 314 kts | 153° |
| 2026-05-01 14:25 | 30.48923 | -95.87157 | 10169 ft | 309 kts | 166° |
| 2026-05-01 14:25 | 30.46817 | -95.86793 | 9969 ft | 300 kts | 174° |
| 2026-05-01 14:25 | 30.44806 | -95.86582 | 9950 ft | 280 kts | 174° |
| 2026-05-01 14:26 | 30.42921 | -95.86392 | 9805 ft | 266 kts | 174° |
| 2026-05-01 14:26 | 30.39242 | -95.86007 | 8799 ft | 268 kts | 172° |
| 2026-05-01 14:26 | 30.37375 | -95.85803 | 8406 ft | 270 kts | 172° |
| 2026-05-01 14:27 | 30.35526 | -95.85599 | 8092 ft | 265 kts | 171° |
| 2026-05-01 14:27 | 30.33716 | -95.85398 | 7798 ft | 265 kts | 171° |
| 2026-05-01 14:27 | 30.31878 | -95.85192 | 7501 ft | 265 kts | 171° |
| 2026-05-01 14:28 | 30.28226 | -95.84783 | 6916 ft | 260 kts | 171° |
| 2026-05-01 14:28 | 30.26448 | -95.84585 | 6620 ft | 253 kts | 170° |
| 2026-05-01 14:28 | 30.24718 | -95.84391 | 6340 ft | 246 kts | 170° |
| 2026-05-01 14:28 | 30.23033 | -95.84206 | 6094 ft | 239 kts | 169° |
| 2026-05-01 14:29 | 30.21407 | -95.84022 | 5862 ft | 232 kts | 169° |
| 2026-05-01 14:29 | 30.19811 | -95.83834 | 5608 ft | 228 kts | 169° |
| 2026-05-01 14:30 | 30.15073 | -95.83279 | 4891 ft | 231 kts | 168° |
| 2026-05-01 14:30 | 30.13475 | -95.83093 | 4651 ft | 231 kts | 168° |
| 2026-05-01 14:30 | 30.11871 | -95.82909 | 4410 ft | 231 kts | 168° |
| 2026-05-01 14:31 | 30.08654 | -95.82535 | 3877 ft | 235 kts | 167° |
| 2026-05-01 14:31 | 30.07016 | -95.82346 | 3549 ft | 239 kts | 167° |
| 2026-05-01 14:31 | 30.05366 | -95.82156 | 3214 ft | 236 kts | 166° |
| 2026-05-01 14:31 | 30.03928 | -95.81476 | 3022 ft | 213 kts | 132° |
| 2026-05-01 14:32 | 30.02966 | -95.80265 | 2996 ft | 200 kts | 116° |
| 2026-05-01 14:32 | 30.02161 | -95.78941 | 3002 ft | 204 kts | 117° |
| 2026-05-01 14:32 | 30.01321 | -95.77605 | 3000 ft | 207 kts | 115° |
| 2026-05-01 14:32 | 30.00884 | -95.76134 | 3001 ft | 190 kts | 88° |
| 2026-05-01 14:33 | 30.00809 | -95.74598 | 2991 ft | 193 kts | 89° |
| 2026-05-01 14:33 | 30.00739 | -95.73029 | 2987 ft | 197 kts | 87° |
| 2026-05-01 14:33 | 30.00706 | -95.71434 | 3001 ft | 199 kts | 87° |
| 2026-05-01 14:33 | 30.00693 | -95.69833 | 2989 ft | 200 kts | 86° |
| 2026-05-01 14:34 | 30.00689 | -95.68228 | 2994 ft | 200 kts | 86° |
| 2026-05-01 14:34 | 30.00689 | -95.66621 | 3004 ft | 200 kts | 86° |
| 2026-05-01 14:34 | 30.00695 | -95.65057 | 2993 ft | 196 kts | 85° |
| 2026-05-01 14:34 | 30.00713 | -95.63484 | 2988 ft | 196 kts | 85° |
| 2026-05-01 14:35 | 30.00724 | -95.61913 | 2988 ft | 194 kts | 85° |
| 2026-05-01 14:35 | 30.00726 | -95.60358 | 2979 ft | 191 kts | 85° |
| 2026-05-01 14:35 | 30.00725 | -95.58854 | 2979 ft | 184 kts | 85° |
| 2026-05-01 14:35 | 30.00723 | -95.57390 | 2981 ft | 179 kts | 85° |
| 2026-05-01 14:36 | 30.00720 | -95.55991 | 2977 ft | 166 kts | 84° |
| 2026-05-01 14:36 | 30.00721 | -95.54707 | 2995 ft | 163 kts | 85° |
| 2026-05-01 14:36 | 30.00718 | -95.53392 | 2971 ft | 164 kts | 85° |
| 2026-05-01 14:36 | 30.00717 | -95.52070 | 2821 ft | 167 kts | 85° |
| 2026-05-01 14:37 | 30.00718 | -95.50714 | 2611 ft | 170 kts | 84° |
| 2026-05-01 14:37 | 30.00717 | -95.49355 | 2384 ft | 168 kts | 87° |
| 2026-05-01 14:37 | 30.00716 | -95.48007 | 2154 ft | 167 kts | 88° |
| 2026-05-01 14:37 | 30.00714 | -95.46684 | 1928 ft | 162 kts | 88° |
| 2026-05-01 14:38 | 30.00713 | -95.45424 | 1723 ft | 152 kts | 86° |
| 2026-05-01 14:38 | 30.00713 | -95.44238 | 1555 ft | 146 kts | 85° |
| 2026-05-01 14:38 | 30.00714 | -95.43055 | 1349 ft | 147 kts | 86° |
| 2026-05-01 14:38 | 30.00714 | -95.41861 | 1153 ft | 152 kts | 86° |
| 2026-05-01 14:39 | 30.00715 | -95.40621 | 942 ft | 155 kts | 86° |
| 2026-05-01 14:39 | 30.00715 | -95.39384 | 730 ft | 153 kts | 86° |
| 2026-05-01 14:39 | 30.00717 | -95.38168 | 517 ft | 151 kts | 86° |
| 2026-05-01 14:39 | 30.00737 | -95.36967 | 327 ft | 148 kts | 88° |
| 2026-05-01 14:40 | 30.00717 | -95.35780 | 124 ft | 147 kts | 87° |
| 2026-05-01 14:40 | 30.00724 | -95.34712 | 106 ft | 108 kts | 93° |
| 2026-05-01 14:40 | 30.00721 | -95.34090 | 106 ft | 47 kts | 90° |
| 2026-05-01 14:40 | 30.00722 | -95.33792 | 105 ft | 33 kts | 90° |
| 2026-05-01 14:41 | 30.00699 | -95.33568 | 106 ft | 25 kts | 104° |
| 2026-05-01 14:41 | 30.00627 | -95.33403 | 105 ft | 21 kts | 120° |
| 2026-05-01 14:41 | 30.00565 | -95.33276 | 106 ft | 16 kts | 118° |
| 2026-05-01 14:41 | 30.00521 | -95.33178 | 106 ft | 12 kts | 116° |
| 2026-05-01 14:42 | 30.00492 | -95.33107 | 106 ft | 8 kts | 117° |
| 2026-05-01 14:42 | 30.00470 | -95.33062 | 106 ft | 6 kts | 122° |
| 2026-05-01 14:42 | 30.00440 | -95.33021 | 106 ft | 8 kts | 130° |
| 2026-05-01 14:42 | 30.00400 | -95.32964 | 106 ft | 11 kts | 129° |
| 2026-05-01 14:43 | 30.00348 | -95.32889 | 106 ft | 13 kts | 128° |
| 2026-05-01 14:43 | 30.00283 | -95.32802 | 106 ft | 15 kts | 130° |
| 2026-05-01 14:43 | 30.00210 | -95.32702 | 106 ft | 17 kts | 130° |
| 2026-05-01 14:43 | 30.00133 | -95.32593 | 106 ft | 17 kts | 131° |
| 2026-05-01 14:44 | 30.00031 | -95.32538 | 106 ft | 16 kts | 179° |
| 2026-05-01 14:44 | 29.99812 | -95.32537 | 105 ft | 15 kts | 180° |
| 2026-05-01 14:44 | 29.99702 | -95.32536 | 106 ft | 17 kts | 179° |
| 2026-05-01 14:45 | 29.99576 | -95.32537 | 106 ft | 19 kts | 180° |
| 2026-05-01 14:45 | 29.99291 | -95.32536 | 104 ft | 19 kts | 180° |
| 2026-05-01 14:45 | 29.99183 | -95.32573 | 106 ft | 17 kts | 246° |
| 2026-05-01 14:46 | 29.99176 | -95.32707 | 106 ft | 17 kts | 271° |
| 2026-05-01 14:46 | 29.99179 | -95.32986 | 106 ft | 18 kts | 269° |
| 2026-05-01 14:46 | 29.99178 | -95.33132 | 106 ft | 18 kts | 270° |
| 2026-05-01 14:47 | 29.99178 | -95.33280 | 106 ft | 19 kts | 269° |
| 2026-05-01 14:47 | 29.99177 | -95.33434 | 106 ft | 20 kts | 270° |
| 2026-05-01 14:47 | 29.99177 | -95.33579 | 106 ft | 14 kts | 269° |
| 2026-05-01 14:48 | 29.99177 | -95.33833 | 106 ft | 17 kts | 270° |
| 2026-05-01 14:48 | 29.99172 | -95.33946 | 105 ft | 10 kts | 252° |
| 2026-05-01 14:48 | 29.99057 | -95.33976 | 106 ft | 10 kts | 186° |
| 2026-05-01 14:49 | 29.98913 | -95.34016 | 106 ft | 11 kts | 180° |
| 2026-05-01 14:49 | 29.98811 | -95.34066 | 105 ft | 0 kts | 200° |
| 2026-05-01 14:50 | 29.98811 | -95.34067 | 106 ft | 0 kts | 200° |